createdAt,value
2023-01-15T00:02:25.222Z,99379.56
2023-01-15T00:04:54.453Z,99366.31
2023-01-15T00:07:21.958Z,99369.81
2023-01-15T00:09:49.831Z,99358.59
2023-01-15T00:12:17.206Z,99354.06
2023-01-15T00:14:44.067Z,99358.84
2023-01-15T00:17:10.609Z,99357.28
2023-01-15T00:19:37.335Z,99354.88
2023-01-15T00:22:03.850Z,99346.06
2023-01-15T00:24:48.947Z,99332.84
2023-01-15T00:27:33.926Z,99336.50
2023-01-15T00:30:00.661Z,99324.44
2023-01-15T00:32:29.590Z,99324.41
2023-01-15T00:34:56.868Z,99306.69
2023-01-15T00:37:23.853Z,99321.38
2023-01-15T00:39:50.568Z,99299.75
2023-01-15T00:42:17.356Z,99291.94
2023-01-15T00:44:46.669Z,99300.47
2023-01-15T00:47:16.128Z,99293.53
2023-01-15T00:49:43.204Z,99301.81
2023-01-15T00:52:10.581Z,99305.56
2023-01-15T00:54:37.247Z,99296.50
2023-01-15T00:57:03.942Z,99286.56
2023-01-15T00:59:30.548Z,99294.34
2023-01-15T01:01:57.391Z,99294.59
2023-01-15T01:04:25.207Z,99290.06
2023-01-15T01:06:51.756Z,99277.22
2023-01-15T01:09:18.536Z,99280.94
2023-01-15T01:11:45.112Z,99295.44
2023-01-15T01:14:12.444Z,99292.78
2023-01-15T01:16:42.058Z,99281.03
2023-01-15T01:19:19.321Z,99274.00
2023-01-15T01:21:46.788Z,99285.44
2023-01-15T01:24:15.694Z,99270.94
2023-01-15T01:26:44.135Z,99273.09
2023-01-15T01:29:19.328Z,99270.66
2023-01-15T01:31:46.284Z,99269.78
2023-01-15T01:34:13.620Z,99265.16
2023-01-15T01:36:42.186Z,99274.09
2023-01-15T01:39:13.760Z,99274.38
2023-01-15T01:41:41.956Z,99272.59
2023-01-15T01:44:28.381Z,99270.72
2023-01-15T01:46:54.969Z,99280.06
2023-01-15T01:49:21.857Z,99277.66
2023-01-15T01:52:08.388Z,99275.78
2023-01-15T01:54:39.764Z,99276.88
2023-01-15T01:57:13.214Z,99281.44
2023-01-15T01:59:40.275Z,99277.13
2023-01-15T02:02:07.448Z,99280.25
2023-01-15T02:04:34.806Z,99277.81
2023-01-15T02:07:02.241Z,99271.66
2023-01-15T02:09:29.195Z,99266.09
2023-01-15T02:12:00.385Z,99265.84
2023-01-15T02:14:27.395Z,99269.31
2023-01-15T02:17:01.228Z,99266.81
2023-01-15T02:19:34.235Z,99253.41
2023-01-15T02:22:04.057Z,99273.78
2023-01-15T02:24:33.867Z,99272.22
2023-01-15T02:27:00.803Z,99265.38
2023-01-15T02:29:31.501Z,99264.56
2023-01-15T02:32:01.980Z,99260.75
2023-01-15T02:34:32.460Z,99266.88
2023-01-15T02:37:04.009Z,99272.69
2023-01-15T02:39:35.375Z,99269.38
2023-01-15T02:42:04.562Z,99282.56
2023-01-15T02:44:40.884Z,99285.00
2023-01-15T02:47:15.048Z,99286.03
2023-01-15T02:49:44.270Z,99290.34
2023-01-15T02:52:23.791Z,99281.81
2023-01-15T02:54:58.897Z,99286.69
2023-01-15T02:57:27.616Z,99310.50
2023-01-15T03:00:00.824Z,99319.94
2023-01-15T03:02:32.608Z,99312.69
2023-01-15T03:05:14.073Z,99322.53
2023-01-15T03:07:43.750Z,99340.28
2023-01-15T03:10:13.889Z,99339.50
2023-01-15T03:13:03.970Z,99346.75
2023-01-15T03:16:14.875Z,99336.91
2023-01-15T03:19:05.029Z,99346.75
2023-01-15T03:21:51.662Z,99338.25
2023-01-15T03:24:21.616Z,99340.66
2023-01-15T03:26:48.338Z,99350.28
2023-01-15T03:29:15.232Z,99355.91
2023-01-15T03:31:44.714Z,99346.28
2023-01-15T03:34:14.527Z,99336.38
2023-01-15T03:36:42.947Z,99349.72
2023-01-15T03:39:10.736Z,99350.28
2023-01-15T03:42:05.557Z,99346.81
2023-01-15T03:44:35.099Z,99356.44
2023-01-15T03:47:16.498Z,99347.66
2023-01-15T03:50:00.340Z,99339.38
2023-01-15T03:52:42.653Z,99342.56
2023-01-15T03:55:18.430Z,99334.28
2023-01-15T03:57:58.081Z,99345.50
2023-01-15T04:00:26.526Z,99345.47
2023-01-15T04:02:57.688Z,99353.19
2023-01-15T04:05:27.998Z,99356.41
2023-01-15T04:07:54.852Z,99356.13
2023-01-15T04:10:21.788Z,99358.50
2023-01-15T04:12:49.703Z,99355.88
2023-01-15T04:15:18.085Z,99361.78
2023-01-15T04:17:45.066Z,99366.03
2023-01-15T04:20:12.244Z,99373.00
2023-01-15T04:22:41.481Z,99386.34
2023-01-15T04:25:08.380Z,99392.22
2023-01-15T04:27:34.942Z,99388.47
2023-01-15T04:30:01.868Z,99391.97
2023-01-15T04:32:28.424Z,99395.44
2023-01-15T04:34:54.970Z,99406.94
2023-01-15T04:37:21.466Z,99406.41
2023-01-15T04:39:47.962Z,99398.66
2023-01-15T04:42:33.231Z,99416.03
2023-01-15T04:44:59.859Z,99414.97
2023-01-15T04:47:26.349Z,99412.56
2023-01-15T04:49:52.824Z,99406.72
2023-01-15T04:52:19.498Z,99398.69
2023-01-15T04:54:45.994Z,99422.19
2023-01-15T04:57:12.527Z,99419.25
2023-01-15T04:59:39.059Z,99431.25
2023-01-15T05:02:06.848Z,99432.63
2023-01-15T05:04:34.290Z,99419.81
2023-01-15T05:07:02.148Z,99430.22
2023-01-15T05:09:28.709Z,99430.19
2023-01-15T05:11:55.423Z,99423.53
2023-01-15T05:14:21.939Z,99432.88
2023-01-15T05:16:48.436Z,99428.84
2023-01-15T05:19:14.920Z,99420.03
2023-01-15T05:21:42.626Z,99431.28
2023-01-15T05:24:12.926Z,99432.59
2023-01-15T05:26:39.846Z,99437.41
2023-01-15T05:29:06.315Z,99446.22
2023-01-15T05:31:36.283Z,99431.53
2023-01-15T05:34:02.948Z,99443.00
2023-01-15T05:36:30.211Z,99447.84
2023-01-15T05:39:02.008Z,99444.59
2023-01-15T05:41:48.870Z,99454.78
2023-01-15T05:44:25.940Z,99456.63
2023-01-15T05:46:53.703Z,99452.59
2023-01-15T05:49:22.082Z,99454.75
2023-01-15T05:51:48.776Z,99459.56
2023-01-15T05:54:17.105Z,99471.31
2023-01-15T05:56:45.558Z,99474.53
2023-01-15T05:59:12.795Z,99458.50
2023-01-15T06:01:39.733Z,99454.47
2023-01-15T06:04:06.603Z,99459.56
2023-01-15T06:06:33.922Z,99455.28
2023-01-15T06:09:00.715Z,99453.94
2023-01-15T06:11:27.641Z,99465.47
2023-01-15T06:13:54.281Z,99481.47
2023-01-15T06:16:21.960Z,99494.03
2023-01-15T06:18:48.612Z,99515.94
2023-01-15T06:21:15.258Z,99527.16
2023-01-15T06:23:42.484Z,99528.75
2023-01-15T06:26:13.289Z,99531.16
2023-01-15T06:28:39.886Z,99525.03
2023-01-15T06:31:07.262Z,99531.72
2023-01-15T06:33:34.347Z,99535.97
2023-01-15T06:36:05.203Z,99547.19
2023-01-15T06:38:34.309Z,99532.75
2023-01-15T06:41:01.585Z,99526.34
2023-01-15T06:43:47.147Z,99529.81
2023-01-15T06:46:33.160Z,99538.34
2023-01-15T06:48:59.738Z,99538.06
2023-01-15T06:51:26.391Z,99546.63
2023-01-15T06:53:52.952Z,99552.25
2023-01-15T06:56:19.638Z,99550.91
2023-01-15T06:58:46.585Z,99556.25
2023-01-15T07:01:15.270Z,99557.84
2023-01-15T07:03:42.127Z,99567.69
2023-01-15T07:06:09.767Z,99575.97
2023-01-15T07:08:36.543Z,99586.94
2023-01-15T07:11:04.332Z,99592.81
2023-01-15T07:13:30.989Z,99610.41
2023-01-15T07:16:01.533Z,99616.31
2023-01-15T07:18:28.974Z,99626.97
2023-01-15T07:20:56.747Z,99632.81
2023-01-15T07:23:24.899Z,99650.72
2023-01-15T07:25:55.447Z,99632.81
2023-01-15T07:28:22.797Z,99635.25
2023-01-15T07:30:49.333Z,99650.72
2023-01-15T07:33:15.940Z,99648.59
2023-01-15T07:35:42.485Z,99643.75
2023-01-15T07:38:09.256Z,99644.28
2023-01-15T07:40:35.847Z,99644.53
2023-01-15T07:43:20.980Z,99646.88
2023-01-15T07:46:11.257Z,99653.72
2023-01-15T07:49:05.439Z,99668.13
2023-01-15T07:51:32.228Z,99680.94
2023-01-15T07:54:09.612Z,99680.94
2023-01-15T07:56:36.483Z,99676.41
2023-01-15T07:59:03.634Z,99678.03
2023-01-15T08:01:44.064Z,99683.34
2023-01-15T08:04:11.059Z,99678.56
2023-01-15T08:06:41.050Z,99687.38
2023-01-15T08:09:08.585Z,99698.09
2023-01-15T08:11:54.008Z,99695.44
2023-01-15T08:14:39.326Z,99687.66
2023-01-15T08:17:06.405Z,99703.91
2023-01-15T08:19:33.248Z,99704.72
2023-01-15T08:22:10.440Z,99706.56
2023-01-15T08:24:37.399Z,99700.38
2023-01-15T08:27:07.563Z,99718.53
2023-01-15T08:29:34.231Z,99718.03
2023-01-15T08:32:03.146Z,99714.03
2023-01-15T08:34:30.172Z,99709.75
2023-01-15T08:37:00.404Z,99723.63
2023-01-15T08:39:28.063Z,99715.63
2023-01-15T08:41:55.533Z,99723.69
2023-01-15T08:44:24.855Z,99720.00
2023-01-15T08:46:52.164Z,99722.13
2023-01-15T08:49:19.879Z,99721.59
2023-01-15T08:51:49.977Z,99724.03
2023-01-15T08:54:16.794Z,99736.09
2023-01-15T08:56:43.364Z,99739.84
2023-01-15T08:59:10.897Z,99744.69
2023-01-15T09:01:37.812Z,99744.69
2023-01-15T09:04:06.795Z,99755.56
2023-01-15T09:06:36.869Z,99765.44
2023-01-15T09:09:03.893Z,99771.81
2023-01-15T09:11:31.165Z,99772.88
2023-01-15T09:13:57.968Z,99775.03
2023-01-15T09:16:26.769Z,99784.94
2023-01-15T09:18:53.821Z,99786.81
2023-01-15T09:21:20.820Z,99788.69
2023-01-15T09:23:57.472Z,99791.03
2023-01-15T09:26:27.659Z,99793.22
2023-01-15T09:28:54.841Z,99801.22
2023-01-15T09:31:22.296Z,99792.13
2023-01-15T09:33:49.180Z,99790.81
2023-01-15T09:36:17.298Z,99802.88
2023-01-15T09:38:44.282Z,99805.00
2023-01-15T09:41:31.646Z,99799.13
2023-01-15T09:44:04.535Z,99816.75
2023-01-15T09:46:47.260Z,99821.06
2023-01-15T09:49:32.563Z,99815.50
2023-01-15T09:52:08.054Z,99834.19
2023-01-15T09:54:44.328Z,99834.47
2023-01-15T09:57:22.389Z,99831.28
2023-01-15T09:59:51.700Z,99830.75
2023-01-15T10:02:18.456Z,99841.44
2023-01-15T10:04:47.359Z,99847.88
2023-01-15T10:07:22.429Z,99855.88
2023-01-15T10:09:59.447Z,99854.56
2023-01-15T10:12:39.163Z,99863.38
2023-01-15T10:15:22.685Z,99861.47
2023-01-15T10:18:00.612Z,99866.50
2023-01-15T10:20:42.928Z,99868.63
2023-01-15T10:23:20.246Z,99895.84
2023-01-15T10:26:16.358Z,99921.47
2023-01-15T10:28:52.642Z,99939.63
2023-01-15T10:31:25.114Z,99916.13
2023-01-15T10:34:01.276Z,99929.97
2023-01-15T10:36:35.422Z,99941.38
2023-01-15T10:39:08.252Z,99940.34
2023-01-15T10:41:40.180Z,99943.00
2023-01-15T10:44:36.260Z,99944.19
2023-01-15T10:47:11.292Z,99933.31
2023-01-15T10:49:39.046Z,99932.34
2023-01-15T10:52:24.511Z,99928.97
2023-01-15T10:55:20.387Z,99941.38
2023-01-15T10:58:08.990Z,99937.19
2023-01-15T11:00:37.717Z,99935.41
2023-01-15T11:03:08.740Z,99927.66
2023-01-15T11:05:39.274Z,99932.53
2023-01-15T11:08:45.254Z,99935.75
2023-01-15T11:10:55.561Z,99947.34
2023-01-15T11:13:42.565Z,99943.97
2023-01-15T11:16:35.830Z,99948.31
2023-01-15T11:19:23.025Z,99943.34
2023-01-15T11:21:50.488Z,99957.91
2023-01-15T11:24:17.994Z,99941.22
2023-01-15T11:26:54.890Z,99955.25
2023-01-15T11:29:39.829Z,99961.69
2023-01-15T11:32:19.445Z,99963.00
2023-01-15T11:34:52.682Z,99964.75
2023-01-15T11:37:19.686Z,99960.91
2023-01-15T11:39:56.962Z,99958.81
2023-01-15T11:42:42.161Z,99959.78
2023-01-15T11:45:31.928Z,99955.09
2023-01-15T11:48:17.255Z,99948.63
2023-01-15T11:50:49.717Z,99957.59
2023-01-15T11:53:21.437Z,99958.97
2023-01-15T11:55:52.896Z,99953.72
2023-01-15T11:58:19.871Z,99960.88
2023-01-15T12:00:49.633Z,99977.81
2023-01-15T12:03:21.425Z,99966.66
2023-01-15T12:05:54.269Z,99958.63
2023-01-15T12:08:44.480Z,99958.38
2023-01-15T12:11:26.745Z,99946.69
2023-01-15T12:14:09.577Z,99956.81
2023-01-15T12:16:42.393Z,99945.00
2023-01-15T12:19:27.917Z,99941.66
2023-01-15T12:21:54.438Z,99933.56
2023-01-15T12:24:21.025Z,99933.56
2023-01-15T12:26:57.297Z,99927.25
2023-01-15T12:29:29.550Z,99917.72
2023-01-15T12:32:03.210Z,99903.47
2023-01-15T12:34:39.828Z,99895.22
2023-01-15T12:37:09.780Z,99896.78
2023-01-15T12:39:48.795Z,99895.47
2023-01-15T12:42:39.278Z,99880.28
2023-01-15T12:45:21.774Z,99872.66
2023-01-15T12:47:51.647Z,99871.78
2023-01-15T12:50:28.908Z,99860.50
2023-01-15T12:53:14.697Z,99857.91
2023-01-15T12:55:45.063Z,99852.13
2023-01-15T12:58:26.402Z,99839.63
2023-01-15T13:01:00.156Z,99844.03
2023-01-15T13:03:46.959Z,99850.03
2023-01-15T13:06:14.371Z,99847.44
2023-01-15T13:08:41.434Z,99842.50
2023-01-15T13:11:10.466Z,99841.44
2023-01-15T13:13:39.487Z,99849.94
2023-01-15T13:16:16.973Z,99855.91
2023-01-15T13:18:44.342Z,99850.31
2023-01-15T13:21:13.581Z,99866.56
2023-01-15T13:24:03.546Z,99866.59
2023-01-15T13:26:49.293Z,99872.16
2023-01-15T13:29:19.101Z,99877.78
2023-01-15T13:31:46.455Z,99877.97
2023-01-15T13:34:16.966Z,99880.81
2023-01-15T13:36:46.708Z,99873.50
2023-01-15T13:39:21.939Z,99879.19
2023-01-15T13:42:10.105Z,99876.50
2023-01-15T13:44:39.677Z,99883.59
2023-01-15T13:47:08.991Z,99891.84
2023-01-15T13:49:56.228Z,99895.81
2023-01-15T13:52:26.904Z,99907.25
2023-01-15T13:54:55.359Z,99901.34
2023-01-15T13:57:41.410Z,99914.16
2023-01-15T14:00:11.859Z,99907.50
2023-01-15T14:02:54.060Z,99915.13
2023-01-15T14:05:26.826Z,99922.03
2023-01-15T14:07:53.435Z,99918.63
2023-01-15T14:10:36.376Z,99925.47
2023-01-15T14:13:12.313Z,99924.59
2023-01-15T14:15:53.966Z,99923.00
2023-01-15T14:18:29.969Z,99911.41
2023-01-15T14:21:15.444Z,99899.66
2023-01-15T14:24:00.968Z,99919.13
2023-01-15T14:26:37.626Z,99922.59
2023-01-15T14:29:23.086Z,99930.56
2023-01-15T14:31:58.751Z,99928.19
2023-01-15T14:34:28.777Z,99931.16
2023-01-15T14:37:18.774Z,99939.41
2023-01-15T14:39:52.129Z,99944.25
2023-01-15T14:42:40.911Z,99945.19
2023-01-15T14:45:11.230Z,99950.94
2023-01-15T14:47:49.216Z,99947.59
2023-01-15T14:50:18.969Z,99953.44
2023-01-15T14:52:46.706Z,99959.00
2023-01-15T14:55:14.252Z,99963.41
2023-01-15T14:57:43.172Z,99967.22
2023-01-15T15:00:16.924Z,99968.63
2023-01-15T15:02:44.644Z,99969.50
2023-01-15T15:05:15.320Z,99967.81
2023-01-15T15:07:48.444Z,99951.38
2023-01-15T15:10:48.032Z,99967.00
2023-01-15T15:13:31.248Z,99953.78
2023-01-15T15:16:17.277Z,99961.16
2023-01-15T15:18:45.725Z,99954.22
2023-01-15T15:21:22.524Z,99961.66
2023-01-15T15:24:14.279Z,99947.03
2023-01-15T15:26:41.711Z,99963.22
2023-01-15T15:29:12.604Z,99959.63
2023-01-15T15:31:51.413Z,99959.81
2023-01-15T15:34:24.266Z,99972.00
2023-01-15T15:36:51.446Z,99970.38
2023-01-15T15:39:29.990Z,99967.34
2023-01-15T15:42:21.599Z,99970.00
2023-01-15T15:45:14.925Z,99956.13
2023-01-15T15:48:01.432Z,99960.16
2023-01-15T15:50:33.155Z,99960.44
2023-01-15T15:53:04.437Z,99937.16
2023-01-15T15:55:38.174Z,99936.69
2023-01-15T15:58:05.990Z,99956.06
2023-01-15T16:00:43.364Z,99945.03
2023-01-15T16:03:39.390Z,99929.13
2023-01-15T16:06:07.601Z,99918.41
2023-01-15T16:08:37.908Z,99931.44
2023-01-15T16:11:06.358Z,99925.94
2023-01-15T16:13:35.141Z,99928.78
2023-01-15T16:16:04.242Z,99933.88
2023-01-15T16:18:38.364Z,99924.25
2023-01-15T16:21:08.669Z,99935.25
2023-01-15T16:23:35.800Z,99937.34
2023-01-15T16:26:02.669Z,99930.16
2023-01-15T16:28:40.695Z,99926.69
2023-01-15T16:31:07.852Z,99934.91
2023-01-15T16:33:39.517Z,99928.31
2023-01-15T16:36:08.408Z,99912.66
2023-01-15T16:38:42.938Z,99912.97
2023-01-15T16:41:36.316Z,99916.22
2023-01-15T16:44:04.732Z,99913.78
2023-01-15T16:46:33.520Z,99916.16
2023-01-15T16:49:38.930Z,99920.06
2023-01-15T16:52:25.619Z,99909.53
2023-01-15T16:54:55.968Z,99899.91
2023-01-15T16:57:45.641Z,99905.06
2023-01-15T17:00:30.916Z,99899.25
2023-01-15T17:02:59.029Z,99906.75
2023-01-15T17:05:26.173Z,99888.63
2023-01-15T17:07:56.751Z,99896.03
2023-01-15T17:10:27.146Z,99902.91
2023-01-15T17:12:58.895Z,99906.06
2023-01-15T17:15:33.753Z,99901.03
2023-01-15T17:18:21.527Z,99903.41
2023-01-15T17:20:48.202Z,99912.19
2023-01-15T17:23:14.820Z,99915.47
2023-01-15T17:25:48.833Z,99914.84
2023-01-15T17:28:25.876Z,99914.59
2023-01-15T17:30:55.022Z,99905.25
2023-01-15T17:33:24.581Z,99906.13
2023-01-15T17:35:56.166Z,99899.19
2023-01-15T17:38:23.317Z,99906.31
2023-01-15T17:40:52.769Z,99894.59
2023-01-15T17:43:19.911Z,99889.78
2023-01-15T17:45:46.772Z,99900.41
2023-01-15T17:48:14.391Z,99898.47
2023-01-15T17:50:44.350Z,99896.38
2023-01-15T17:53:11.109Z,99896.44
2023-01-15T17:55:58.890Z,99899.50
2023-01-15T17:58:44.547Z,99901.22
2023-01-15T18:01:33.308Z,99895.72
2023-01-15T18:04:19.090Z,99903.47
2023-01-15T18:06:48.647Z,99900.59
2023-01-15T18:09:16.333Z,99896.22
2023-01-15T18:11:43.180Z,99893.47
2023-01-15T18:14:10.358Z,99889.59
2023-01-15T18:16:37.312Z,99892.34
2023-01-15T18:19:04.263Z,99891.31
2023-01-15T18:21:30.897Z,99889.66
2023-01-15T18:24:07.020Z,99900.41
2023-01-15T18:26:35.541Z,99898.78
2023-01-15T18:29:02.685Z,99897.59
2023-01-15T18:31:29.352Z,99897.97
2023-01-15T18:33:56.039Z,99900.56
2023-01-15T18:36:22.699Z,99892.88
2023-01-15T18:38:49.785Z,99896.50
2023-01-15T18:41:38.708Z,99907.81
2023-01-15T18:44:27.918Z,99914.28
2023-01-15T18:46:57.053Z,99904.25
2023-01-15T18:49:24.137Z,99910.53
2023-01-15T18:52:14.358Z,99905.72
2023-01-15T18:54:43.856Z,99908.94
2023-01-15T18:57:16.403Z,99906.03
2023-01-15T18:59:45.715Z,99900.72
2023-01-15T19:02:16.131Z,99896.63
2023-01-15T19:04:45.599Z,99893.47
2023-01-15T19:07:12.450Z,99889.59
2023-01-15T19:09:42.191Z,99880.25
2023-01-15T19:12:10.222Z,99893.06
2023-01-15T19:15:01.649Z,99881.63
2023-01-15T19:17:47.366Z,99883.00
2023-01-15T19:20:16.458Z,99882.34
2023-01-15T19:22:58.975Z,99887.34
2023-01-15T19:25:26.976Z,99883.50
2023-01-15T19:27:56.393Z,99890.72
2023-01-15T19:30:23.816Z,99891.06
2023-01-15T19:32:50.527Z,99887.84
2023-01-15T19:35:20.456Z,99891.06
2023-01-15T19:37:47.600Z,99872.84
2023-01-15T19:40:19.681Z,99872.09
2023-01-15T19:43:04.817Z,99870.47
2023-01-15T19:45:50.394Z,99861.84
2023-01-15T19:48:47.393Z,99871.81
2023-01-15T19:51:14.051Z,99860.16
2023-01-15T19:53:40.848Z,99853.63
2023-01-15T19:56:08.213Z,99852.66
2023-01-15T19:58:35.674Z,99852.81
2023-01-15T20:01:03.168Z,99845.41
2023-01-15T20:03:30.294Z,99839.78
2023-01-15T20:05:58.032Z,99834.53
2023-01-15T20:08:24.888Z,99831.53
2023-01-15T20:10:54.507Z,99830.91
2023-01-15T20:13:42.963Z,99824.91
2023-01-15T20:16:13.690Z,99828.63
2023-01-15T20:18:40.949Z,99818.63
2023-01-15T20:21:08.629Z,99821.34
2023-01-15T20:23:36.919Z,99819.44
2023-01-15T20:26:04.878Z,99816.78
2023-01-15T20:28:38.318Z,99804.63
2023-01-15T20:31:05.044Z,99812.69
2023-01-15T20:33:35.125Z,99812.34
2023-01-15T20:36:05.092Z,99801.88
2023-01-15T20:38:34.072Z,99811.94
2023-01-15T20:41:25.729Z,99803.97
2023-01-15T20:44:14.428Z,99801.06
2023-01-15T20:46:41.374Z,99795.25
2023-01-15T20:49:26.808Z,99794.56
2023-01-15T20:51:53.930Z,99779.19
2023-01-15T20:54:21.819Z,99770.63
2023-01-15T20:56:48.559Z,99776.03
2023-01-15T20:59:15.329Z,99776.34
2023-01-15T21:01:42.201Z,99771.00
2023-01-15T21:04:09.848Z,99758.44
2023-01-15T21:06:37.156Z,99747.81
2023-01-15T21:09:03.827Z,99746.41
2023-01-15T21:11:30.562Z,99740.47
2023-01-15T21:13:57.268Z,99743.22
2023-01-15T21:16:24.061Z,99736.78
2023-01-15T21:18:51.095Z,99731.44
2023-01-15T21:21:18.418Z,99729.34
2023-01-15T21:23:45.905Z,99725.72
2023-01-15T21:26:13.418Z,99721.44
2023-01-15T21:28:39.932Z,99718.66
2023-01-15T21:31:10.061Z,99711.31
2023-01-15T21:33:40.652Z,99705.75
2023-01-15T21:36:08.636Z,99705.84
2023-01-15T21:38:35.234Z,99705.13
2023-01-15T21:41:09.145Z,99699.94
2023-01-15T21:43:54.387Z,99695.72
2023-01-15T21:46:23.265Z,99688.31
2023-01-15T21:48:53.328Z,99685.84
2023-01-15T21:51:20.439Z,99683.25
2023-01-15T21:54:07.754Z,99688.25
2023-01-15T21:56:52.076Z,99688.03
2023-01-15T21:59:34.830Z,99675.34
2023-01-15T22:02:15.483Z,99685.56
2023-01-15T22:04:43.705Z,99673.44
2023-01-15T22:07:10.883Z,99673.00
2023-01-15T22:09:37.789Z,99668.31
2023-01-15T22:12:05.598Z,99661.69
2023-01-15T22:14:35.525Z,99649.69
2023-01-15T22:17:03.663Z,99653.81
2023-01-15T22:19:31.709Z,99639.91
2023-01-15T22:22:00.781Z,99645.47
2023-01-15T22:24:32.227Z,99641.63
2023-01-15T22:27:02.468Z,99640.84
2023-01-15T22:29:34.025Z,99640.97
2023-01-15T22:32:06.599Z,99625.00
2023-01-15T22:34:33.382Z,99621.16
2023-01-15T22:37:00.314Z,99622.66
2023-01-15T22:39:30.653Z,99606.25
2023-01-15T22:42:16.139Z,99614.53
2023-01-15T22:44:48.759Z,99604.22
2023-01-15T22:47:18.337Z,99596.59
2023-01-15T22:49:45.800Z,99595.66
2023-01-15T22:52:12.555Z,99603.59
2023-01-15T22:54:41.970Z,99594.13
2023-01-15T22:57:08.722Z,99589.16
2023-01-15T22:59:36.273Z,99590.94
2023-01-15T23:02:03.133Z,99584.44
2023-01-15T23:04:31.443Z,99589.34
2023-01-15T23:07:04.924Z,99583.84
2023-01-15T23:09:31.525Z,99583.59
2023-01-15T23:12:02.485Z,99573.00
2023-01-15T23:14:32.678Z,99571.88
2023-01-15T23:16:59.462Z,99564.41
2023-01-15T23:19:28.143Z,99564.41
2023-01-15T23:21:55.162Z,99551.72
2023-01-15T23:24:22.349Z,99543.72
2023-01-15T23:26:51.157Z,99540.38
2023-01-15T23:29:18.210Z,99533.88
2023-01-15T23:31:50.760Z,99533.22
2023-01-15T23:34:17.878Z,99527.78
2023-01-15T23:36:47.658Z,99524.59
2023-01-15T23:39:15.852Z,99518.91
2023-01-15T23:42:01.495Z,99521.66
2023-01-15T23:44:46.921Z,99518.72
2023-01-15T23:47:14.851Z,99517.13
2023-01-15T23:49:46.960Z,99519.16
2023-01-15T23:52:13.503Z,99509.63
2023-01-15T23:54:40.329Z,99501.41
2023-01-15T23:57:08.959Z,99498.13
2023-01-15T23:59:36.003Z,99491.22
